Southaven, MS

4:41 AM CST en Diciembre 21, 2014 (GMT -0600)
Tunica | Change Station
CLOSE
Current Station
Aeropuerto
Location: Tunica,
Altura: 194 ft
Estaciones meteorológicas cercanas

Alt 194 ft 34.68 °N, 90.35 °W | Updated 6 minutes ago

Despejado
Despejado
34 ° F
Sensación térmica 30 ° F
N
5
Viento Variable Viento desde NE

Hoy
Alta -- | Baja -- ° F
--% Posibilidad de precipitaciones
Ayer
Alta -- | Baja -- ° F
Precip. -- pul
7:03 AM 4:52 PM
Creciente menguante, 1% visible
Presión 30.21 pul
Visibilidad 10.0 Millas
Nubes Despejado
Vientos helados 30 ° F
Punto de rocío 32 ° F
Humedad 93%
Precipitaciones 0.00 pul
Espesor de la nieve No disponible.
UV 0 de una escala de 12
Polen .10 de una escala de 12
Calidad del aire No disponible.
Flu Activity No disponible.
METAR KUTA 211035Z AUTO 05004KT 10SM CLR 01/00 A3021 RMK AO2

More Conditions Fewer Conditions

Presión 30.21 pul
Visibilidad 10.0 Millas
Nubes Despejado
Vientos helados 30 ° F
Punto de rocío 32 ° F
Humedad 93%
Precipitaciones 0.00 pul
Espesor de la nieve No disponible.
UV 0 de una escala de 12
Polen .10 de una escala de 12
Calidad del aire No disponible.
Flu Activity No disponible.
METAR KUTA 211035Z AUTO 05004KT 10SM CLR 01/00 A3021 RMK AO2

More Conditions Fewer Conditions

10-Day Weather Forecast

Almanac

Astronomía

Dec. 21, 2014 Salida Puesta
Hora real
Crepúsculo civil
Crepúsculo náutico
Crepúsculo astronómico
Luna
Horas de luz
Horas de luz
Tomorrow will be .
, % of the Moon is Illuminated

Extremos de hoy

Máximos del estado Bajos del estado

Community

WunderPhotos

Upload Photos

1,779,367 ¡fotos cargadas!

WunderBlogs® & News

Nearby

Calidad del aire

  Calidad del aire Índice AQ Contaminante
Not available.

Grosos de nieve

Estación Profundido Altura

Actividad de terremotos

Ciudad Distance Mag. Tiempo y dato
Magnitud mínima muestra es 2,5.

Temperaturas de aguas costeras

Lugar Temperatura

Estaciones meteorológicas cercanas